Eagle Lake, Minnesota
Current Conditions -  °F | °C
As of 4:55 PM on Saturday 20 Dec 2014 (Local Time) from KMKT Reporting Station
Overcast Overcast  
Wind Chill: -5°   Ceiling: 1300
Heat Index: -1°   Visibility: 10mi
Dew Point: -4°   Wind: 8mph
Humidity: 80%   Direction: 160°SSE
Pressure: 30.11"   Gusts: NA
Location:  44.16°N, 93.88°W
Report Text: KMKT 202255Z AUTO 16007KT 10SM OVC013 M01/M04 A3011 RMK AO1
Loading
Personal Weather Stations






























Interactive Weather Map New forecast layout! Learn more

10-Day Weather Forecast

Advertisements
Track Severe Weather on mobile